createdAt,value
2023-01-27T00:01:25.399Z,13.27
2023-01-27T00:06:28.745Z,12.82
2023-01-27T00:11:51.014Z,12.07
2023-01-27T00:16:54.461Z,12.90
2023-01-27T00:22:15.213Z,12.70
2023-01-27T00:27:20.075Z,11.77
2023-01-27T00:32:40.852Z,11.07
2023-01-27T00:37:44.473Z,11.45
2023-01-27T00:42:51.180Z,11.57
2023-01-27T00:47:54.697Z,10.45
2023-01-27T00:52:59.200Z,10.02
2023-01-27T00:58:04.042Z,10.63
2023-01-27T01:08:10.506Z,10.10
2023-01-27T01:13:15.377Z,10.68
2023-01-27T01:18:19.000Z,10.68
2023-01-27T01:23:22.486Z,10.23
2023-01-27T01:28:27.894Z,10.02
2023-01-27T01:33:31.273Z,9.70
2023-01-27T01:38:34.726Z,10.25
2023-01-27T01:43:39.748Z,9.40
2023-01-27T01:48:47.581Z,9.80
2023-01-27T01:53:55.094Z,10.43
2023-01-27T01:59:05.270Z,9.48
2023-01-27T02:04:14.406Z,9.82
2023-01-27T02:09:19.053Z,9.73
2023-01-27T02:14:23.905Z,9.43
2023-01-27T02:24:45.347Z,9.15
2023-01-27T02:29:50.076Z,8.77
2023-01-27T02:34:54.995Z,9.85
2023-01-27T02:45:04.981Z,9.33
2023-01-27T02:50:09.432Z,8.35
2023-01-27T02:55:13.194Z,8.77
2023-01-27T03:00:19.085Z,8.30
2023-01-27T03:05:22.493Z,8.38
2023-01-27T03:10:26.009Z,7.75
2023-01-27T03:15:59.112Z,7.68
2023-01-27T03:21:04.046Z,7.85
2023-01-27T03:31:19.726Z,7.68
2023-01-27T03:36:41.059Z,7.22
2023-01-27T03:42:01.561Z,7.65
2023-01-27T03:47:06.494Z,7.07
2023-01-27T03:57:13.195Z,6.22
2023-01-27T04:02:35.832Z,7.57
2023-01-27T04:07:39.458Z,6.65
2023-01-27T04:12:42.863Z,6.75
2023-01-27T04:17:47.703Z,6.28
2023-01-27T04:27:54.303Z,5.85
2023-01-27T04:33:02.896Z,6.00
2023-01-27T04:38:06.524Z,6.15
2023-01-27T04:43:14.681Z,5.65
2023-01-27T04:48:19.719Z,5.85
2023-01-27T04:53:23.207Z,5.45
2023-01-27T04:58:26.721Z,6.07
2023-01-27T05:03:31.467Z,6.05
2023-01-27T05:13:38.222Z,5.13
2023-01-27T05:18:44.046Z,5.88
2023-01-27T05:23:47.621Z,5.43
2023-01-27T05:28:52.786Z,5.93
2023-01-27T05:33:59.937Z,5.25
2023-01-27T05:39:03.524Z,5.05
2023-01-27T05:44:07.378Z,5.85
2023-01-27T05:49:12.437Z,6.22
2023-01-27T05:54:15.939Z,5.47
2023-01-27T05:59:19.391Z,5.68
2023-01-27T06:04:26.449Z,5.13
2023-01-27T06:09:29.810Z,5.18
2023-01-27T06:14:33.171Z,5.00
2023-01-27T06:19:38.277Z,4.72
2023-01-27T06:24:44.740Z,5.07
2023-01-27T06:29:48.330Z,5.65
2023-01-27T06:34:56.117Z,4.72
2023-01-27T06:39:59.428Z,5.00
2023-01-27T06:45:03.027Z,4.93
2023-01-27T06:50:09.941Z,5.07
2023-01-27T06:55:19.606Z,4.97
2023-01-27T07:00:23.561Z,5.10
2023-01-27T07:05:28.543Z,5.50
2023-01-27T07:10:32.177Z,4.80
2023-01-27T07:15:36.150Z,5.40
2023-01-27T07:20:41.552Z,5.00
2023-01-27T07:25:45.444Z,4.70
2023-01-27T07:30:49.055Z,4.38
2023-01-27T07:35:55.755Z,5.00
2023-01-27T07:40:59.517Z,4.70
2023-01-27T07:46:05.883Z,4.95
2023-01-27T07:51:15.077Z,4.50
2023-01-27T07:56:22.473Z,4.75
2023-01-27T08:01:26.151Z,4.80
2023-01-27T08:06:31.261Z,4.50
2023-01-27T08:11:35.094Z,4.85
2023-01-27T08:16:40.536Z,4.07
2023-01-27T08:21:45.589Z,5.20
2023-01-27T08:26:49.270Z,4.45
2023-01-27T08:31:52.968Z,5.45
2023-01-27T08:36:58.006Z,5.35
2023-01-27T08:42:02.117Z,5.75
2023-01-27T08:47:05.790Z,5.53
2023-01-27T08:52:10.893Z,5.63
2023-01-27T08:57:14.472Z,6.40
2023-01-27T09:02:18.040Z,6.05
2023-01-27T09:07:27.384Z,5.60
2023-01-27T09:12:30.906Z,6.07
2023-01-27T09:17:34.511Z,5.80
2023-01-27T09:22:40.569Z,6.32
2023-01-27T09:27:44.153Z,5.70
2023-01-27T09:32:47.661Z,6.53
2023-01-27T09:37:56.401Z,5.90
2023-01-27T09:43:16.707Z,6.43
2023-01-27T09:48:46.782Z,6.75
2023-01-27T09:54:16.784Z,6.47
2023-01-27T09:59:35.191Z,6.25
2023-01-27T10:05:03.325Z,6.03
2023-01-27T10:10:26.148Z,6.15
2023-01-27T10:15:45.165Z,5.88
2023-01-27T10:21:01.698Z,6.95
2023-01-27T10:26:20.381Z,6.38
2023-01-27T10:31:28.293Z,6.05
2023-01-27T10:36:41.851Z,7.38
2023-01-27T10:41:56.028Z,6.72
2023-01-27T10:47:07.624Z,6.90
2023-01-27T10:52:17.497Z,6.80
2023-01-27T10:57:27.531Z,6.55
2023-01-27T11:02:36.144Z,6.30
2023-01-27T11:07:49.002Z,6.05
2023-01-27T11:12:58.015Z,6.18
2023-01-27T11:18:05.555Z,6.85
2023-01-27T11:23:18.699Z,6.82
2023-01-27T11:28:32.967Z,6.78
2023-01-27T11:33:48.971Z,6.70
2023-01-27T11:38:52.749Z,6.60
2023-01-27T11:43:57.633Z,7.80
2023-01-27T11:54:11.694Z,6.55
2023-01-27T11:59:20.978Z,6.25
2023-01-27T12:04:45.573Z,6.57
2023-01-27T12:09:49.392Z,6.40
2023-01-27T12:14:56.077Z,6.80
2023-01-27T12:20:03.981Z,7.05
2023-01-27T12:25:15.797Z,6.93
2023-01-27T12:30:24.074Z,6.90
2023-01-27T12:35:31.056Z,6.70
2023-01-27T12:40:36.065Z,6.63
2023-01-27T12:45:43.509Z,6.93
2023-01-27T12:50:58.260Z,6.28
2023-01-27T12:56:06.175Z,6.68
2023-01-27T13:01:23.753Z,6.60
2023-01-27T13:06:35.541Z,6.90
2023-01-27T13:11:42.190Z,7.03
2023-01-27T13:16:54.187Z,7.05
2023-01-27T13:21:58.253Z,6.78
2023-01-27T13:27:05.084Z,7.33
2023-01-27T13:32:20.695Z,6.45
2023-01-27T13:37:33.321Z,7.88
2023-01-27T13:42:43.545Z,8.18
2023-01-27T13:47:54.991Z,7.63
2023-01-27T13:53:00.568Z,8.18
2023-01-27T13:58:11.577Z,8.45
2023-01-27T14:03:36.903Z,7.70
2023-01-27T14:14:23.619Z,8.60
2023-01-27T14:19:39.086Z,8.80
2023-01-27T14:24:51.168Z,9.50
2023-01-27T14:30:03.148Z,8.93
2023-01-27T14:35:30.500Z,9.75
2023-01-27T14:40:39.990Z,10.50
2023-01-27T14:45:49.313Z,9.52
2023-01-27T14:51:08.937Z,9.30
2023-01-27T14:56:22.005Z,9.43
2023-01-27T15:01:34.667Z,9.85
2023-01-27T15:06:47.761Z,8.77
2023-01-27T15:12:09.889Z,9.98
2023-01-27T15:17:28.529Z,9.93
2023-01-27T15:22:45.163Z,9.30
2023-01-27T15:27:49.811Z,8.68
2023-01-27T15:32:53.553Z,9.27
2023-01-27T15:38:01.937Z,8.93
2023-01-27T15:43:06.658Z,8.88
2023-01-27T15:48:16.433Z,8.90
2023-01-27T15:53:29.680Z,9.25
2023-01-27T15:58:36.386Z,9.20
2023-01-27T16:03:44.154Z,9.32
2023-01-27T16:08:53.524Z,9.75
2023-01-27T16:14:34.199Z,10.02
2023-01-27T16:19:44.691Z,10.20
2023-01-27T16:24:56.481Z,9.88
2023-01-27T16:30:08.068Z,10.93
2023-01-27T16:35:20.803Z,11.30
2023-01-27T16:40:26.573Z,11.32
2023-01-27T16:45:35.079Z,11.45
2023-01-27T16:50:40.479Z,10.00
2023-01-27T16:55:56.376Z,11.40
2023-01-27T17:01:01.638Z,11.32
2023-01-27T17:06:09.044Z,12.57
2023-01-27T17:11:19.876Z,12.68
2023-01-27T17:16:27.383Z,12.82
2023-01-27T17:21:34.958Z,12.77
2023-01-27T17:26:40.112Z,12.38
2023-01-27T17:31:44.318Z,12.23
2023-01-27T17:37:07.822Z,12.38
2023-01-27T17:42:18.214Z,11.70
2023-01-27T17:47:23.422Z,10.98
2023-01-27T17:52:28.475Z,10.48
2023-01-27T17:57:36.052Z,10.55
2023-01-27T18:03:00.060Z,10.45
2023-01-27T18:08:05.540Z,10.70
2023-01-27T18:13:35.325Z,10.98
2023-01-27T18:18:39.120Z,10.00
2023-01-27T18:23:46.811Z,10.65
2023-01-27T18:28:54.722Z,10.65
2023-01-27T18:34:00.142Z,10.25
2023-01-27T18:39:05.164Z,9.93
2023-01-27T18:44:12.328Z,9.88
2023-01-27T18:49:15.946Z,11.50
2023-01-27T18:54:19.384Z,10.65
2023-01-27T18:59:24.548Z,10.80
2023-01-27T19:04:28.759Z,11.02
2023-01-27T19:09:32.396Z,10.63
2023-01-27T19:14:37.152Z,11.05
2023-01-27T19:19:40.741Z,11.30
2023-01-27T19:24:45.924Z,12.70
2023-01-27T19:29:51.134Z,11.23
2023-01-27T19:34:54.579Z,11.23
2023-01-27T19:39:59.624Z,10.93
2023-01-27T19:45:04.644Z,10.95
2023-01-27T19:50:13.620Z,11.60
2023-01-27T19:55:17.650Z,10.82
2023-01-27T20:00:28.400Z,11.33
2023-01-27T20:05:35.525Z,11.00
2023-01-27T20:10:39.201Z,11.48
2023-01-27T20:15:44.581Z,11.38
2023-01-27T20:20:48.311Z,12.85
2023-01-27T20:25:51.793Z,13.68
2023-01-27T20:30:56.788Z,13.18
2023-01-27T20:36:00.304Z,12.82
2023-01-27T20:41:08.219Z,12.13
2023-01-27T20:46:15.374Z,11.85
2023-01-27T20:51:19.125Z,12.35
2023-01-27T20:56:24.145Z,11.80
2023-01-27T21:01:29.151Z,11.32
2023-01-27T21:06:32.865Z,11.90
2023-01-27T21:11:36.445Z,11.82
2023-01-27T21:16:41.276Z,11.95
2023-01-27T21:26:50.359Z,10.75
2023-01-27T21:31:57.196Z,7.53
2023-01-27T21:37:00.887Z,5.72
2023-01-27T21:42:36.281Z,4.43
2023-01-27T21:52:46.089Z,2.37
2023-01-27T21:57:51.237Z,2.08
2023-01-27T22:02:56.845Z,2.00
2023-01-27T22:08:02.050Z,1.60
2023-01-27T22:13:05.851Z,1.88
2023-01-27T22:18:10.827Z,1.48
2023-01-27T22:23:14.150Z,1.63
2023-01-27T22:28:18.086Z,1.40
2023-01-27T22:33:22.790Z,1.40
2023-01-27T22:43:29.687Z,1.60
2023-01-27T22:48:34.612Z,1.40
2023-01-27T22:58:41.452Z,1.20
2023-01-27T23:03:46.440Z,1.30
2023-01-27T23:08:50.037Z,1.15
2023-01-27T23:13:53.370Z,1.20
2023-01-27T23:18:58.379Z,1.45
2023-01-27T23:24:01.962Z,0.90
2023-01-27T23:29:16.250Z,1.05
2023-01-27T23:34:28.901Z,1.00
2023-01-27T23:44:35.569Z,1.13
2023-01-27T23:49:40.535Z,1.20
2023-01-27T23:54:43.993Z,1.00
2023-01-27T23:59:47.661Z,1.00
